createdAt,value
2018-10-19T00:01:41.771Z,73.60
2018-10-19T00:04:09.919Z,73.20
2018-10-19T00:06:38.423Z,73.60
2018-10-19T00:09:07.472Z,73.80
2018-10-19T00:11:35.638Z,74.10
2018-10-19T00:14:03.858Z,74.50
2018-10-19T00:16:32.023Z,74.50
2018-10-19T00:19:00.190Z,74.30
2018-10-19T00:21:28.391Z,74.10
2018-10-19T00:23:56.578Z,73.60
2018-10-19T00:26:24.739Z,73.90
2018-10-19T00:28:52.975Z,74.10
2018-10-19T00:31:21.104Z,73.80
2018-10-19T00:33:49.267Z,73.40
2018-10-19T00:36:17.430Z,73.80
2018-10-19T00:38:45.599Z,73.60
2018-10-19T00:41:13.836Z,73.70
2018-10-19T00:43:41.929Z,73.80
2018-10-19T00:46:10.119Z,74.10
2018-10-19T00:48:38.327Z,74.20
2018-10-19T00:51:06.580Z,74.30
2018-10-19T00:53:34.710Z,73.40
2018-10-19T00:56:02.894Z,74.10
2018-10-19T00:58:31.082Z,74.10
2018-10-19T01:00:59.288Z,74.80
2018-10-19T01:03:27.495Z,75.00
2018-10-19T01:05:55.685Z,74.80
2018-10-19T01:08:23.900Z,75.20
2018-10-19T01:10:52.081Z,75.80
2018-10-19T01:13:20.270Z,75.60
2018-10-19T01:15:48.460Z,74.90
2018-10-19T01:18:16.653Z,75.00
2018-10-19T01:20:44.868Z,74.90
2018-10-19T01:23:13.092Z,74.70
2018-10-19T01:25:42.271Z,74.30
2018-10-19T01:28:10.954Z,73.90
2018-10-19T01:30:39.162Z,73.20
2018-10-19T01:33:07.396Z,73.30
2018-10-19T01:35:35.543Z,73.70
2018-10-19T01:38:03.726Z,73.60
2018-10-19T01:40:31.921Z,74.00
2018-10-19T01:43:00.120Z,74.70
2018-10-19T01:45:29.363Z,75.00
2018-10-19T01:47:57.763Z,74.90
2018-10-19T01:50:25.911Z,75.70
2018-10-19T01:52:54.131Z,76.10
2018-10-19T01:55:22.264Z,76.20
2018-10-19T01:57:50.467Z,76.00
2018-10-19T02:00:18.611Z,75.90
2018-10-19T02:02:46.768Z,76.00
2018-10-19T02:05:14.990Z,75.50
2018-10-19T02:07:43.075Z,75.10
2018-10-19T02:10:11.218Z,74.90
2018-10-19T02:12:39.384Z,75.50
2018-10-19T02:15:08.030Z,76.20
2018-10-19T02:17:36.163Z,75.90
2018-10-19T02:20:04.319Z,76.50
2018-10-19T02:22:32.487Z,77.30
2018-10-19T02:25:00.720Z,77.70
2018-10-19T02:27:28.871Z,77.80
2018-10-19T02:29:57.028Z,77.10
2018-10-19T02:32:25.199Z,76.70
2018-10-19T02:34:53.372Z,76.60
2018-10-19T02:37:21.549Z,76.10
2018-10-19T02:39:49.808Z,75.70
2018-10-19T02:42:18.023Z,75.30
2018-10-19T02:44:46.199Z,74.00
2018-10-19T02:47:14.447Z,74.70
2018-10-19T02:49:42.599Z,74.80
2018-10-19T02:52:10.782Z,74.90
2018-10-19T02:54:38.946Z,75.00
2018-10-19T02:57:07.264Z,75.20
2018-10-19T02:59:35.394Z,76.00
2018-10-19T03:02:03.563Z,76.80
2018-10-19T03:04:31.740Z,77.30
2018-10-19T03:06:59.954Z,78.10
2018-10-19T03:09:28.100Z,78.50
2018-10-19T03:11:56.259Z,78.70
2018-10-19T03:14:24.426Z,79.50
2018-10-19T03:16:52.629Z,80.20
2018-10-19T03:19:20.784Z,80.40
2018-10-19T03:21:48.991Z,80.50
2018-10-19T03:24:17.127Z,79.50
2018-10-19T03:26:45.323Z,78.20
2018-10-19T03:29:13.523Z,77.90
2018-10-19T03:31:41.650Z,77.60
2018-10-19T03:34:10.908Z,78.40
2018-10-19T03:36:39.072Z,79.00
2018-10-19T03:39:08.149Z,79.60
2018-10-19T03:41:36.180Z,79.50
2018-10-19T03:44:04.443Z,79.20
2018-10-19T03:46:32.643Z,78.80
2018-10-19T03:49:00.903Z,78.90
2018-10-19T03:51:29.032Z,78.70
2018-10-19T03:53:57.224Z,78.60
2018-10-19T03:56:25.412Z,78.70
2018-10-19T03:58:53.657Z,78.80
2018-10-19T04:01:21.846Z,78.90
2018-10-19T04:03:50.054Z,79.00
2018-10-19T04:06:18.259Z,79.30
2018-10-19T04:08:46.470Z,79.30
2018-10-19T04:11:14.767Z,80.20
2018-10-19T04:13:42.867Z,79.70
2018-10-19T04:16:11.065Z,79.80
2018-10-19T04:18:39.258Z,79.70
2018-10-19T04:21:07.608Z,79.70
2018-10-19T04:23:35.732Z,80.30
2018-10-19T04:26:03.932Z,80.60
2018-10-19T04:28:32.157Z,80.40
2018-10-19T04:31:00.330Z,79.60
2018-10-19T04:33:28.544Z,80.20
2018-10-19T04:35:56.735Z,80.50
2018-10-19T04:38:25.047Z,80.30
2018-10-19T04:40:53.243Z,80.30
2018-10-19T04:43:21.466Z,80.70
2018-10-19T04:45:49.743Z,81.20
2018-10-19T04:48:17.907Z,81.70
2018-10-19T04:50:46.107Z,82.80
2018-10-19T04:53:14.330Z,84.50
2018-10-19T04:55:42.454Z,85.70
2018-10-19T04:58:10.619Z,86.20
2018-10-19T05:00:38.821Z,86.70
2018-10-19T05:03:07.017Z,87.60
2018-10-19T05:05:35.155Z,88.20
2018-10-19T05:08:03.385Z,88.00
2018-10-19T05:10:31.579Z,88.10
2018-10-19T05:12:59.817Z,89.30
2018-10-19T05:15:27.888Z,90.10
2018-10-19T05:17:56.070Z,90.20
2018-10-19T05:20:24.238Z,90.30
2018-10-19T05:22:52.404Z,90.50
2018-10-19T05:25:20.582Z,91.00
2018-10-19T05:27:48.743Z,91.30
2018-10-19T05:30:16.947Z,91.20
2018-10-19T05:32:45.134Z,91.10
2018-10-19T05:35:13.423Z,91.10
2018-10-19T05:37:41.781Z,91.10
2018-10-19T05:40:10.775Z,91.20
2018-10-19T05:42:39.407Z,91.50
2018-10-19T05:45:08.656Z,91.60
2018-10-19T05:47:36.842Z,91.60
2018-10-19T05:50:05.863Z,91.50
2018-10-19T05:52:34.048Z,91.40
2018-10-19T05:55:02.235Z,91.30
2018-10-19T05:57:30.423Z,91.30
2018-10-19T05:59:58.610Z,91.40
2018-10-19T06:02:26.924Z,91.40
2018-10-19T06:04:55.037Z,91.30
2018-10-19T06:07:23.210Z,91.40
2018-10-19T06:09:51.419Z,91.50
2018-10-19T06:12:19.619Z,91.60
2018-10-19T06:14:47.814Z,91.60
2018-10-19T06:17:16.016Z,91.60
2018-10-19T06:19:44.211Z,91.60
2018-10-19T06:22:12.506Z,91.60
2018-10-19T06:24:40.719Z,91.60
2018-10-19T06:27:08.906Z,91.60
2018-10-19T06:29:37.110Z,91.60
2018-10-19T06:32:05.924Z,91.60
2018-10-19T06:34:34.107Z,91.70
2018-10-19T06:37:02.297Z,91.80
2018-10-19T06:39:30.483Z,91.70
2018-10-19T06:41:58.695Z,91.40
2018-10-19T06:44:26.858Z,91.50
2018-10-19T06:46:55.105Z,91.20
2018-10-19T06:49:23.231Z,91.10
2018-10-19T06:51:51.396Z,91.00
2018-10-19T06:54:19.559Z,91.00
2018-10-19T06:56:47.724Z,91.10
2018-10-19T06:59:15.913Z,91.10
2018-10-19T07:01:44.044Z,91.20
2018-10-19T07:04:12.224Z,91.30
2018-10-19T07:06:40.412Z,91.40
2018-10-19T07:09:08.666Z,91.30
2018-10-19T07:11:36.832Z,91.50
2018-10-19T07:14:05.186Z,91.80
2018-10-19T07:16:33.320Z,91.80
2018-10-19T07:19:04.664Z,91.90
2018-10-19T07:21:32.759Z,91.90
2018-10-19T07:24:00.934Z,91.90
2018-10-19T07:26:29.108Z,91.90
2018-10-19T07:28:57.284Z,91.80
2018-10-19T07:31:25.484Z,91.90
2018-10-19T07:33:54.338Z,92.10
2018-10-19T07:36:22.623Z,92.30
2018-10-19T07:38:50.742Z,92.40
2018-10-19T07:41:18.975Z,92.10
2018-10-19T07:43:47.139Z,92.10
2018-10-19T07:46:15.351Z,91.60
2018-10-19T07:48:43.512Z,92.20
2018-10-19T07:51:11.678Z,92.10
2018-10-19T07:53:39.934Z,91.60
2018-10-19T07:56:08.212Z,91.60
2018-10-19T07:58:36.323Z,91.50
2018-10-19T08:01:04.578Z,91.70
2018-10-19T08:03:32.734Z,92.30
2018-10-19T08:06:00.971Z,92.00
2018-10-19T08:08:29.145Z,91.90
2018-10-19T08:10:57.352Z,91.90
2018-10-19T08:13:25.474Z,91.80
2018-10-19T08:15:53.655Z,92.10
2018-10-19T08:18:21.830Z,91.90
2018-10-19T08:20:50.015Z,91.80
2018-10-19T08:23:18.176Z,91.90
2018-10-19T08:25:46.365Z,92.70
2018-10-19T08:28:14.523Z,92.50
2018-10-19T08:30:42.707Z,92.40
2018-10-19T08:33:10.895Z,92.40
2018-10-19T08:35:39.106Z,92.60
2018-10-19T08:38:07.266Z,92.50
2018-10-19T08:40:35.462Z,92.40
2018-10-19T08:43:03.672Z,92.40
2018-10-19T08:45:31.867Z,92.20
2018-10-19T08:48:00.064Z,92.20
2018-10-19T08:50:28.255Z,92.40
2018-10-19T08:52:56.585Z,92.50
2018-10-19T08:55:24.748Z,92.40
2018-10-19T08:57:53.054Z,92.40
2018-10-19T09:00:21.140Z,92.50
2018-10-19T09:02:49.331Z,92.10
2018-10-19T09:05:17.537Z,92.20
2018-10-19T09:07:45.788Z,92.20
2018-10-19T09:10:14.173Z,92.50
2018-10-19T09:12:43.455Z,92.60
2018-10-19T09:15:11.591Z,92.60
2018-10-19T09:17:39.706Z,92.50
2018-10-19T09:20:07.915Z,92.60
2018-10-19T09:22:36.089Z,92.40
2018-10-19T09:25:04.343Z,92.20
2018-10-19T09:27:32.517Z,92.20
2018-10-19T09:30:00.768Z,92.20
2018-10-19T09:32:28.941Z,92.00
2018-10-19T09:34:57.119Z,91.50
2018-10-19T09:37:25.283Z,91.40
2018-10-19T09:39:53.448Z,91.30
2018-10-19T09:42:21.611Z,91.30
2018-10-19T09:44:49.770Z,91.20
2018-10-19T09:47:18.011Z,91.40
2018-10-19T09:49:46.098Z,91.40
2018-10-19T09:52:14.278Z,91.60
2018-10-19T09:54:42.447Z,91.70
2018-10-19T09:57:10.690Z,91.70
2018-10-19T09:59:38.768Z,91.80
2018-10-19T10:02:07.070Z,92.10
2018-10-19T10:04:35.216Z,91.50
2018-10-19T10:07:03.423Z,91.10
2018-10-19T10:09:31.562Z,90.70
2018-10-19T10:11:59.802Z,90.40
2018-10-19T10:14:27.983Z,90.00
2018-10-19T10:16:56.206Z,89.90
2018-10-19T10:19:24.295Z,89.50
2018-10-19T10:21:52.474Z,88.10
2018-10-19T10:24:20.682Z,87.20
2018-10-19T10:26:48.859Z,86.80
2018-10-19T10:29:17.057Z,86.10
2018-10-19T10:31:45.320Z,86.00
2018-10-19T10:34:13.544Z,85.10
2018-10-19T10:36:41.656Z,85.60
2018-10-19T10:39:11.557Z,85.20
2018-10-19T10:41:39.647Z,85.80
2018-10-19T10:44:07.959Z,85.70
2018-10-19T10:46:36.143Z,86.50
2018-10-19T10:49:04.374Z,87.00
2018-10-19T10:51:32.511Z,86.90
2018-10-19T10:54:00.699Z,87.00
2018-10-19T10:56:28.894Z,86.40
2018-10-19T10:58:57.074Z,86.60
2018-10-19T11:01:25.279Z,86.80
2018-10-19T11:03:53.485Z,85.70
2018-10-19T11:06:21.695Z,86.70
2018-10-19T11:08:49.889Z,87.50
2018-10-19T11:11:18.084Z,86.40
2018-10-19T11:13:46.272Z,86.10
2018-10-19T11:16:14.577Z,85.30
2018-10-19T11:18:42.668Z,85.60
2018-10-19T11:21:10.895Z,85.20
2018-10-19T11:23:39.128Z,85.10
2018-10-19T11:26:08.131Z,84.60
2018-10-19T11:28:36.313Z,85.00
2018-10-19T11:31:04.958Z,83.80
2018-10-19T11:33:33.115Z,83.30
2018-10-19T11:36:01.340Z,83.50
2018-10-19T11:38:29.515Z,83.80
2018-10-19T11:40:57.703Z,83.20
2018-10-19T11:43:25.891Z,82.40
2018-10-19T11:45:54.095Z,81.50
2018-10-19T11:48:22.288Z,81.10
2018-10-19T11:50:50.463Z,82.10
2018-10-19T11:53:18.657Z,81.20
2018-10-19T11:55:46.840Z,80.10
2018-10-19T11:58:15.071Z,81.50
2018-10-19T12:00:43.235Z,80.10
2018-10-19T12:03:11.440Z,79.30
2018-10-19T12:05:39.639Z,78.30
2018-10-19T12:08:07.828Z,79.40
2018-10-19T12:10:36.090Z,79.80
2018-10-19T12:13:04.264Z,80.10
2018-10-19T12:15:32.391Z,79.50
2018-10-19T12:18:00.576Z,78.80
2018-10-19T12:20:28.774Z,78.30
2018-10-19T12:22:57.035Z,77.70
2018-10-19T12:25:25.228Z,77.10
2018-10-19T12:27:53.411Z,77.50
2018-10-19T12:30:21.594Z,78.00
2018-10-19T12:32:49.774Z,77.40
2018-10-19T12:35:17.989Z,76.10
2018-10-19T12:37:46.180Z,76.40
2018-10-19T12:40:14.371Z,75.90
2018-10-19T12:42:42.633Z,74.90
2018-10-19T12:46:26.234Z,75.10
2018-10-19T12:48:55.028Z,74.60
2018-10-19T12:51:23.155Z,74.30
2018-10-19T12:53:51.350Z,74.30
2018-10-19T12:56:20.356Z,74.50
2018-10-19T12:58:49.676Z,74.20
2018-10-19T13:01:18.134Z,73.70
2018-10-19T13:03:46.361Z,72.70
2018-10-19T13:06:14.566Z,72.60
2018-10-19T13:08:42.758Z,71.50
2018-10-19T13:11:10.964Z,71.40
2018-10-19T13:13:39.259Z,70.20
2018-10-19T13:16:07.497Z,71.00
2018-10-19T13:18:35.653Z,70.40
2018-10-19T13:21:03.850Z,70.00
2018-10-19T13:23:32.726Z,69.50
2018-10-19T13:26:00.991Z,69.50
2018-10-19T13:28:29.263Z,69.10
2018-10-19T13:32:26.710Z,69.40
2018-10-19T13:34:54.907Z,68.90
2018-10-19T13:37:23.093Z,65.70
2018-10-19T13:39:51.274Z,62.80
2018-10-19T13:42:19.471Z,62.30
2018-10-19T13:44:47.650Z,61.30
2018-10-19T13:47:15.808Z,63.30
2018-10-19T13:49:43.976Z,62.20
2018-10-19T13:52:12.153Z,61.60
2018-10-19T13:54:40.314Z,61.20
2018-10-19T13:57:08.534Z,60.80
2018-10-19T13:59:36.635Z,61.70
2018-10-19T14:02:05.191Z,60.60
2018-10-19T14:04:33.367Z,60.90
2018-10-19T14:07:01.591Z,61.30
2018-10-19T14:09:29.757Z,61.50
2018-10-19T14:11:57.934Z,60.70
2018-10-19T14:14:26.099Z,60.50
2018-10-19T14:16:54.295Z,60.60
2018-10-19T14:19:22.411Z,61.00
2018-10-19T14:21:50.567Z,66.00
2018-10-19T14:24:18.829Z,61.40
2018-10-19T14:26:47.056Z,62.30
2018-10-19T14:29:15.200Z,62.10
2018-10-19T14:31:43.317Z,62.50
2018-10-19T14:34:11.475Z,87.40
2018-10-19T14:36:39.636Z,63.60
2018-10-19T14:39:07.842Z,63.00
2018-10-19T14:41:35.961Z,63.30
2018-10-19T14:44:04.151Z,64.20
2018-10-19T14:46:32.352Z,64.20
2018-10-19T14:49:00.615Z,64.50
2018-10-19T14:51:28.743Z,64.60
2018-10-19T14:53:56.934Z,65.00
2018-10-19T14:56:25.125Z,65.20
2018-10-19T14:58:53.393Z,65.80
2018-10-19T15:01:21.664Z,65.30
2018-10-19T15:03:49.855Z,65.90
2018-10-19T15:06:18.047Z,66.10
2018-10-19T15:08:46.247Z,66.60
2018-10-19T15:11:14.796Z,67.40
2018-10-19T15:13:42.632Z,67.40
2018-10-19T15:16:10.835Z,67.70
2018-10-19T15:18:39.153Z,68.10
2018-10-19T15:21:07.327Z,68.40
2018-10-19T15:23:35.479Z,68.50
2018-10-19T15:26:03.668Z,67.50
2018-10-19T15:28:31.859Z,67.70
2018-10-19T15:31:00.048Z,68.10
2018-10-19T15:33:28.239Z,68.50
2018-10-19T15:35:56.547Z,71.30
2018-10-19T15:38:24.682Z,70.00
2018-10-19T15:43:20.823Z,70.10
2018-10-19T15:45:48.996Z,71.30
2018-10-19T15:48:17.178Z,71.60
2018-10-19T15:50:45.320Z,71.90
2018-10-19T15:53:13.578Z,72.10
2018-10-19T15:55:41.886Z,72.50
2018-10-19T15:58:10.061Z,73.20
2018-10-19T16:00:38.270Z,73.80
2018-10-19T16:03:06.525Z,74.40
2018-10-19T16:05:34.667Z,74.60
2018-10-19T16:08:02.841Z,75.00
2018-10-19T16:10:30.994Z,75.30
2018-10-19T16:12:59.154Z,75.40
2018-10-19T16:15:27.352Z,75.70
2018-10-19T16:17:55.518Z,76.20
2018-10-19T16:20:23.671Z,77.00
2018-10-19T16:22:51.882Z,77.00
2018-10-19T16:25:20.050Z,77.00
2018-10-19T16:27:48.233Z,76.60
2018-10-19T16:30:16.628Z,87.20
2018-10-19T16:32:44.790Z,77.00
2018-10-19T16:35:13.074Z,87.70
2018-10-19T16:37:41.332Z,79.30
2018-10-19T16:40:09.492Z,77.70
2018-10-19T16:42:37.870Z,78.30
2018-10-19T16:45:06.750Z,78.40
2018-10-19T16:47:34.964Z,78.90
2018-10-19T16:50:03.148Z,78.70
2018-10-19T16:52:31.452Z,78.30
2018-10-19T16:54:59.670Z,78.60
2018-10-19T16:57:27.851Z,78.40
2018-10-19T16:59:56.133Z,78.10
2018-10-19T17:02:24.319Z,78.70
2018-10-19T17:04:52.557Z,78.80
2018-10-19T17:07:20.736Z,78.80
2018-10-19T17:09:48.891Z,79.00
2018-10-19T17:12:17.050Z,78.70
2018-10-19T17:14:45.220Z,78.90
2018-10-19T17:17:13.383Z,79.40
2018-10-19T17:19:41.559Z,79.20
2018-10-19T17:22:09.726Z,79.20
2018-10-19T17:24:37.907Z,79.20
2018-10-19T17:27:06.305Z,79.10
2018-10-19T17:29:34.428Z,86.00
2018-10-19T17:32:02.585Z,79.00
2018-10-19T17:34:30.856Z,90.70
2018-10-19T17:36:59.058Z,79.20
2018-10-19T17:39:27.186Z,82.30
2018-10-19T17:41:55.405Z,79.80
2018-10-19T17:44:23.581Z,81.00
2018-10-19T17:46:51.754Z,80.20
2018-10-19T17:49:19.939Z,80.80
2018-10-19T17:51:48.104Z,80.80
2018-10-19T17:54:16.295Z,81.10
2018-10-19T17:56:44.451Z,80.70
2018-10-19T17:59:12.629Z,80.80
2018-10-19T18:01:40.883Z,80.80
2018-10-19T18:04:09.037Z,80.90
2018-10-19T18:06:37.218Z,79.10
2018-10-19T18:09:08.457Z,78.50
2018-10-19T18:11:36.628Z,78.90
2018-10-19T18:14:04.984Z,79.10
2018-10-19T18:16:33.160Z,79.70
2018-10-19T18:19:01.355Z,80.70
2018-10-19T18:21:29.598Z,80.50
2018-10-19T18:23:57.735Z,80.40
2018-10-19T18:26:26.078Z,80.20
2018-10-19T18:28:54.259Z,79.60
2018-10-19T18:31:22.399Z,89.80
2018-10-19T18:33:50.580Z,88.00
2018-10-19T18:36:18.816Z,78.70
2018-10-19T18:38:47.061Z,79.10
2018-10-19T18:41:15.446Z,98.00
2018-10-19T18:43:43.512Z,80.40
2018-10-19T18:46:11.810Z,80.80
2018-10-19T18:48:40.009Z,81.30
2018-10-19T18:53:42.817Z,81.30
2018-10-19T18:56:11.078Z,81.60
2018-10-19T18:58:39.229Z,81.30
2018-10-19T19:01:07.432Z,81.20
2018-10-19T19:03:35.680Z,81.60
2018-10-19T19:06:03.874Z,81.90
2018-10-19T19:08:32.067Z,82.30
2018-10-19T19:11:00.283Z,81.20
2018-10-19T19:13:29.140Z,81.00
2018-10-19T19:15:57.687Z,81.10
2018-10-19T19:18:26.102Z,80.70
2018-10-19T19:20:54.363Z,80.70
2018-10-19T19:23:22.567Z,80.10
2018-10-19T19:25:56.279Z,80.10
2018-10-19T19:28:24.479Z,80.60
2018-10-19T19:30:52.693Z,80.80
2018-10-19T19:33:26.094Z,80.90
2018-10-19T19:35:54.295Z,80.50
2018-10-19T19:38:22.481Z,90.70
2018-10-19T19:40:56.150Z,89.80
2018-10-19T19:43:24.287Z,89.80
2018-10-19T19:45:52.507Z,79.80
2018-10-19T19:50:54.083Z,78.80
2018-10-19T19:53:22.307Z,79.60
2018-10-19T19:55:50.579Z,78.10
2018-10-19T19:58:18.758Z,77.10
2018-10-19T20:00:46.909Z,77.10
2018-10-19T20:03:15.088Z,78.40
2018-10-19T20:05:43.399Z,79.90
2018-10-19T20:08:11.656Z,81.30
2018-10-19T20:10:39.731Z,82.30
2018-10-19T20:13:07.903Z,81.10
2018-10-19T20:15:36.108Z,81.60
2018-10-19T20:18:04.593Z,80.90
2018-10-19T20:20:32.739Z,81.10
2018-10-19T20:23:01.001Z,81.40
2018-10-19T20:25:29.135Z,79.80
2018-10-19T20:27:57.305Z,80.10
2018-10-19T20:30:25.484Z,80.70
2018-10-19T20:32:53.656Z,80.90
2018-10-19T20:35:21.843Z,80.30
2018-10-19T20:37:50.055Z,81.80
2018-10-19T20:40:18.224Z,82.60
2018-10-19T20:42:46.376Z,96.90
2018-10-19T20:45:14.573Z,83.70
2018-10-19T20:52:38.626Z,84.00
2018-10-19T20:55:06.870Z,85.00
2018-10-19T20:57:35.047Z,85.40
2018-10-19T21:00:03.211Z,85.70
2018-10-19T21:02:31.438Z,86.00
2018-10-19T21:04:59.590Z,86.20
2018-10-19T21:07:27.853Z,86.70
2018-10-19T21:09:55.947Z,87.20
2018-10-19T21:12:24.148Z,87.50
2018-10-19T21:14:52.332Z,87.70
2018-10-19T21:17:20.603Z,87.40
2018-10-19T21:19:48.776Z,86.70
2018-10-19T21:22:16.973Z,85.70
2018-10-19T21:24:45.206Z,84.50
2018-10-19T21:27:13.499Z,83.70
2018-10-19T21:29:41.692Z,84.70
2018-10-19T21:32:09.920Z,84.50
2018-10-19T21:34:38.044Z,85.00
2018-10-19T21:37:06.239Z,84.10
2018-10-19T21:39:34.459Z,84.80
2018-10-19T21:42:02.736Z,90.40
2018-10-19T21:44:30.944Z,84.00
2018-10-19T21:46:59.240Z,89.60
2018-10-19T21:49:27.422Z,91.00
2018-10-19T21:51:55.640Z,85.10
2018-10-19T21:54:23.858Z,84.20
2018-10-19T21:56:52.048Z,84.40
2018-10-19T21:59:20.299Z,85.20
2018-10-19T22:01:48.486Z,85.30
2018-10-19T22:04:16.683Z,85.00
2018-10-19T22:06:44.897Z,84.80
2018-10-19T22:09:13.542Z,85.60
2018-10-19T22:11:42.244Z,84.10
2018-10-19T22:14:10.794Z,84.90
2018-10-19T22:16:39.802Z,85.00
2018-10-19T22:19:08.991Z,85.00
2018-10-19T22:21:37.163Z,85.50
2018-10-19T22:24:05.949Z,85.60
2018-10-19T22:26:34.128Z,85.20
2018-10-19T22:29:02.420Z,84.90
2018-10-19T22:31:30.519Z,85.20
2018-10-19T22:33:58.709Z,85.30
2018-10-19T22:36:27.004Z,84.80
2018-10-19T22:38:55.255Z,84.60
2018-10-19T22:41:23.553Z,86.90
2018-10-19T22:43:51.940Z,90.60
2018-10-19T22:46:20.373Z,89.80
2018-10-19T22:48:48.710Z,88.00
2018-10-19T22:51:16.908Z,84.80
2018-10-19T22:56:13.074Z,85.30
2018-10-19T22:58:41.466Z,86.60
2018-10-19T23:01:09.727Z,85.70
2018-10-19T23:03:37.909Z,85.90
2018-10-19T23:06:06.090Z,86.20
2018-10-19T23:08:34.278Z,85.70
2018-10-19T23:11:02.490Z,84.80
2018-10-19T23:13:30.662Z,85.40
2018-10-19T23:15:58.879Z,85.10
2018-10-19T23:18:27.054Z,85.20
2018-10-19T23:20:55.364Z,85.20
2018-10-19T23:23:23.598Z,85.40
2018-10-19T23:25:51.876Z,85.20
2018-10-19T23:28:20.064Z,85.50
2018-10-19T23:30:48.292Z,85.80
2018-10-19T23:33:16.502Z,85.30
2018-10-19T23:35:44.698Z,85.30
2018-10-19T23:38:12.899Z,85.80
2018-10-19T23:40:41.157Z,86.00
2018-10-19T23:43:09.437Z,86.10
2018-10-19T23:45:37.559Z,86.90
2018-10-19T23:48:05.848Z,86.00
2018-10-19T23:50:34.059Z,87.10
2018-10-19T23:53:02.338Z,92.00
2018-10-19T23:55:30.604Z,86.70
2018-10-19T23:57:58.787Z,87.30
